Tiempo atmosférico en la estación meteorológica de La Rambla, Córdoba (200 m.)



Fecha
DESCASC
Temp. máxima en grados centígrados (hora)
DESCASC
Temp. mínima en grados centígrados (hora)
DESCASC
Temp. media en grados centígrados
DESCASC
Racha de viento máxima en m/sg (hora)
DESCASC
Velocidad máxima media en intervalos de 10 minutos(hora)
DESCASC
Precipitaciones diarias en mm
DESCASC
Precipitaciones de 00:00 a 06:00 en mm
DESCASC
Precipitaciones de 06:00 a 12:00 en mm
DESCASC
Precipitaciones de 12:00 a 18:00 en mm
DESCASC
Precipitaciones de 18:00 a 24:00 en mm
DESCASC
10-11-2019 15.9 (14:40) 8.3 (00:00) 12.1 12.5 (17:50) 7.5 (16:30) 0.2 0 0.2 0 0
09-11-2019 16.2 (15:10) 0.3 (00:00) 8.3 5 (22:20) 3.33 (22:20) 0.6 0 0.4 0.2 0
08-11-2019 16.4 (15:50) 3.2 (00:00) 9.8 7.22 (13:30) 3.61 (13:00) 0 0 0 0 0
07-11-2019 17.8 (16:10) 6.1 (00:00) 11.9 7.5 (20:10) 5.83 (20:20) 7.8 0 7.6 0.2 0
06-11-2019 18.7 (15:40) 3.4 (00:00) 11.1 7.5 (16:40) 4.72 (16:00) 0 0 0 0 0
05-11-2019 19 (16:50) 9.3 (00:00) 14.2 11.11 (00:20) 7.78 (00:20) 1.2 1.2 0 0 0
04-11-2019 20.6 (14:50) 15.5 (00:00) 18.1 12.78 (15:10) 9.17 (22:00) 0 0 0 0 0
03-11-2019 24.2 (16:10) 16.2 (00:00) 20.2 12.78 (16:30) 8.89 (16:30) 0 0 0 0 0
02-11-2019 24.7 (15:30) 17.6 (00:00) 21.2 13.61 (16:10) 10 (16:10) 0 0 0 0 0
01-11-2019 26.3 (15:20) 17.4 (00:00) 21.8 11.39 (18:10) 7.5 (18:20) 0 0 0 0 0
31-10-2019 26.1 (15:40) 14.8 (06:10) 20.5 6.11 (16:00) 3.33 (13:40) 0 0 0 0 0
30-10-2019 26.4 (15:30) 11 (00:00) 18.7 5.83 (17:10) 3.61 (17:10) 0 0 0 0 0
29-10-2019 25 (16:30) 11.9 (00:00) 18.4 4.72 (13:40) 2.5 (13:40) 0 0 0 0 0
28-10-2019 24.8 (14:50) 11.5 (00:00) 18.1 6.11 (16:30) 3.61 (17:00) 0 0 0 0 0
27-10-2019 27.6 (16:10) 10.7 (00:00) 19.2 4.72 (07:30) 3.33 (18:00) 0 0 0 0 0
26-10-2019 29.2 (17:00) 9.6 (00:00) 19.4 5.56 (12:00) 3.33 (13:00) 0 0 0 0 0
25-10-2019 25.7 (16:40) 10 (00:00) 17.9 6.94 (05:50) 4.44 (06:10) 0 0 0 0 0
24-10-2019 19.9 (17:10) 9 (00:00) 14.4 4.72 (12:30) 3.33 (05:30) 0 0 0 0 0
23-10-2019 16.6 (15:40) 6.5 (00:00) 11.6 13.61 (14:50) 8.33 (14:40) 0.2 0 0 0 0.2
22-10-2019 19.9 (16:00) 7.8 (00:00) 13.8 10.56 (18:00) 8.06 (18:00) 0 0 0 0 0
21-10-2019 20.8 (17:00) 7.3 (00:00) 14 4.17 (11:40) 2.5 (16:40) 0 0 0 0 0
20-10-2019 18.7 (16:50) 10.9 (00:00) 14.8 10.28 (02:20) 7.78 (02:30) 0.8 0.8 0 0 0
19-10-2019 24.9 (16:10) 15.9 (00:00) 20.4 15 (22:30) 9.72 (22:30) 12.2 0 0 0 12.2
18-10-2019 26.4 (17:00) 11.5 (00:00) 18.9 8.06 (15:40) 4.17 (17:40) 0 0 0 0 0
17-10-2019 26 (18:00) 6.6 (00:00) 16.3 5.56 (17:50) 2.78 (16:10) 0 0 0 0 0
16-10-2019 24.8 (17:20) 5.4 (00:00) 15.1 5 (15:30) 2.78 (11:40) 0 0 0 0 0
15-10-2019 21.8 (17:40) 6.2 (00:00) 14 6.11 (11:50) 3.89 (12:00) 0.2 0.2 0 0 0
14-10-2019 23.6 (16:20) 15.3 (00:00) 19.5 13.89 (18:20) 9.72 (17:50) 1.8 0 1 0 0.8

Gráficas

Temp. máximas Temp. mínimas Temp. medias Precipitaciones Rachas de viento máximas Velocidades máximas media en intervalos de 10 minutos

Datos horarios

Fecha y hora oficial Temperatura (ºC) Velocidad del viento (km/h) Dirección del viento Racha (km/h) Dirección de racha Precipitación (mm) Presión (hPa) Tendencia (hPa) Humedad (%)
2019-11-12 23:00:00 8 3 Este 6 Este 0 -- -- 76
2019-11-12 22:00:00 8.6 2 Este 6 Este 0 -- -- 73
2019-11-12 21:00:00 9.7 3 Este 6 Este 0 -- -- 71
2019-11-12 20:00:00 12.8 5 Noroeste 14 Noroeste 0 -- -- 58
2019-11-12 19:00:00 13.9 9 Oeste 12 Oeste 0 -- -- 56
2019-11-12 18:00:00 16.7 7 Sudoeste 24 Sudoeste 0 -- -- 54
2019-11-12 17:00:00 18.1 12 Oeste 21 Noroeste 0 -- -- 46
2019-11-12 16:00:00 17.7 6 Oeste 23 Oeste 0 -- -- 55
2019-11-12 15:00:00 16.7 5 Oeste 18 Noroeste 0 -- -- 61
2019-11-12 14:00:00 16.3 9 Noroeste 19 Noroeste 0 -- -- 63
2019-11-12 13:00:00 15.5 7 Norte 16 Norte 0 -- -- 66
2019-11-12 12:00:00 14.7 9 Noroeste 14 Noroeste 0 -- -- 73
2019-11-12 11:00:00 12.9 6 Norte 12 Norte 0 -- -- 84
2019-11-12 10:00:00 11.1 4 Norte 10 Norte 0 -- -- 93
2019-11-12 09:00:00 9.5 6 Norte 18 Norte 0 -- -- 96
2019-11-12 08:00:00 9.1 8 Norte 15 Norte 0 -- -- 96
2019-11-12 07:00:00 8.5 10 Norte 15 Nordeste 0 -- -- 95
2019-11-12 06:00:00 9.4 8 Noroeste 12 Noroeste 0 -- -- 93
2019-11-12 05:00:00 10 3 Norte 8 Norte 0 -- -- 95
2019-11-12 04:00:00 9.6 4 Norte 13 Norte 0 -- -- 96
2019-11-12 03:00:00 9.1 6 Norte 10 Norte 0 -- -- 96
2019-11-12 02:00:00 9.2 4 Norte 11 Norte 0 -- -- 96
2019-11-12 01:00:00 8.9 3 Norte 6 Nordeste 0 -- -- 95
2019-11-12 00:00:00 8.4 4 Norte 6 Norte 0 -- -- 94
2019-11-11 23:00:00 9.3 2 Nordeste 6 Norte 0 -- -- 93
2019-11-11 22:00:00 9.9 4 Nordeste 6 Nordeste 0 -- -- 92
2019-11-11 21:00:00 10.9 2 Norte 6 Nordeste 0 -- -- 90
2019-11-11 20:00:00 12.2 4 Nordeste 9 Este 0 -- -- 89
2019-11-11 19:00:00 13.2 4 Este 6 Este 0 -- -- 87
2019-11-11 18:00:00 13.9 3 Norte 13 Oeste 0 -- -- 84
2019-11-11 17:00:00 14.3 7 Oeste 15 Sudoeste 0 -- -- 78
2019-11-11 16:00:00 14.1 10 Sudoeste 18 Sudoeste 0 -- -- 76
2019-11-11 15:00:00 14.2 8 Sudoeste 15 Sudoeste 0 -- -- 74
2019-11-11 14:00:00 14 8 Sudoeste 15 Sudoeste 0 -- -- 73
2019-11-11 13:00:00 13.8 6 Oeste 13 Sudoeste 0 -- -- 71
2019-11-11 12:00:00 13.5 7 Sudoeste 14 Sudoeste 0 -- -- 76
2019-11-11 11:00:00 12.4 7 Sur 13 Sur 0 -- -- 80
2019-11-11 10:00:00 10.1 0 Calma 5 Sudoeste 0 -- -- 89
2019-11-11 09:00:00 8.9 0 Calma 3 Sur 0 -- -- 90
2019-11-11 08:00:00 8.8 0 Calma 6 Este 0 -- -- 88
2019-11-11 07:00:00 8.6 0 Calma 5 Sudeste 0 -- -- 87
2019-11-11 06:00:00 9.6 0 Calma 6 Sudeste 0 -- -- 85
2019-11-11 05:00:00 9.9 3 Nordeste 4 Nordeste 0 -- -- 84
2019-11-11 04:00:00 10 3 Este 4 Este 0 -- -- 83
2019-11-11 03:00:00 10.2 0 Calma 6 Este 0 -- -- 80
2019-11-11 02:00:00 10.6 0 Calma 9 Noroeste 0 -- -- 79
2019-11-11 01:00:00 10.9 5 Sudeste 9 Sudeste 0 -- -- 77
2019-11-11 00:00:00 11.7 3 Norte 15 Noroeste 0 -- -- 72
2019-11-10 23:00:00 11.6 8 Noroeste 15 Noroeste 0 -- -- 70
2019-11-10 22:00:00 12 12 Noroeste 20 Noroeste 0 -- -- 68
2019-11-10 21:00:00 12 11 Noroeste 17 Noroeste 0 -- -- 65
2019-11-10 20:00:00 12 8 Oeste 17 Noroeste 0 -- -- 63
2019-11-10 19:00:00 12.6 16 Noroeste 31 Noroeste 0 -- -- 59
2019-11-10 18:00:00 13.4 25 Noroeste 45 Noroeste 0 -- -- 56
2019-11-10 17:00:00 14.8 18 Noroeste 42 Noroeste 0 -- -- 45
2019-11-10 16:00:00 15.5 26 Noroeste 36 Noroeste 0 -- -- 47
2019-11-10 15:00:00 15.8 18 Noroeste 31 Noroeste 0 -- -- 46
2019-11-10 14:00:00 15.3 18 Noroeste 31 Noroeste 0 -- -- 50
2019-11-10 13:00:00 14.9 18 Noroeste 28 Noroeste 0 -- -- 54
2019-11-10 12:00:00 14 11 Noroeste 23 Noroeste 0 -- -- 63
2019-11-10 11:00:00 12.3 7 Oeste 15 Oeste 0 -- -- 74
2019-11-10 10:00:00 10.9 10 Oeste 20 Noroeste 0 -- -- 81
2019-11-10 09:00:00 9.4 8 Noroeste 12 Noroeste 0 -- -- 86
2019-11-10 08:00:00 9.2 5 Oeste 13 Sudoeste 0 -- -- 87
2019-11-10 07:00:00 8.6 0 Calma 5 Este 0.2 -- -- 93
2019-11-10 06:00:00 9.4 0 Calma 4 Este 0 -- -- 93
2019-11-10 05:00:00 10.6 2 Sudeste 9 Oeste 0 -- -- 93
2019-11-10 04:00:00 11.2 8 Sudoeste 11 Sudoeste 0 -- -- 92
2019-11-10 03:00:00 11.2 2 Norte 15 Sur 0 -- -- 91
2019-11-10 02:00:00 11.8 9 Sur 13 Sur 0 -- -- 88
2019-11-10 01:00:00 12.3 5 Sur 15 Sur 0 -- -- 84
2019-11-10 00:00:00 11.9 6 Sur 14 Sudoeste 0 -- -- 80
2019-11-09 23:00:00 11.8 6 Sur 18 Sudoeste 0 -- -- 74
2019-11-09 22:00:00 11.7 11 Sudoeste 16 Sur 0 -- -- 68
2019-11-09 21:00:00 10.7 7 Sur 11 Sur 0 -- -- 72
2019-11-09 20:00:00 11 0 Calma 9 Sur 0 -- -- 73
2019-11-09 19:00:00 12.5 2 Sur 11 Sur 0 -- -- 66
2019-11-09 18:00:00 14.6 7 Sur 15 Sudoeste 0 -- -- 59
2019-11-09 17:00:00 16.1 9 Sudoeste 17 Oeste 0 -- -- 52
2019-11-09 16:00:00 16 10 Sudoeste 18 Oeste 0.2 -- -- 50
2019-11-09 15:00:00 15.8 6 Sudoeste 14 Sudoeste 0 -- -- 51
2019-11-09 14:00:00 15 9 Sur 15 Sur 0 -- -- 54
2019-11-09 13:00:00 13.6 8 Sudoeste 15 Sudoeste 0 -- -- 60
2019-11-09 12:00:00 11.9 7 Sudoeste 13 Sudoeste 0.2 -- -- 72
2019-11-09 11:00:00 9.5 9 Sudoeste 12 Sudoeste 0 -- -- 79
2019-11-09 10:00:00 6.3 4 Sudoeste 8 Sudoeste 0.2 -- -- 90
2019-11-09 09:00:00 2.6 0 Calma 6 Norte 0 -- -- 98
2019-11-09 08:00:00 0.5 3 Norte 5 Norte 0 -- -- 96
2019-11-09 07:00:00 0.6 0 Calma 3 Norte 0 -- -- 95
2019-11-09 06:00:00 1.1 2 Norte 5 Norte 0 -- -- 94
2019-11-09 05:00:00 1.1 0 Calma 5 Norte 0 -- -- 93
2019-11-09 04:00:00 1.8 3 Norte 5 Este 0 -- -- 94
2019-11-09 03:00:00 2.5 2 Norte 4 Norte 0 -- -- 93
2019-11-09 02:00:00 2.9 0 Calma 4 Norte 0 -- -- 91
2019-11-09 01:00:00 3.6 3 Este 4 Este 0 -- -- 90
2019-11-09 00:00:00 4.6 0 Calma 4 Norte 0 -- -- 88
2019-11-08 23:00:00 5.4 0 Calma 5 Sudeste 0 -- -- 86
2019-11-08 22:00:00 6.1 3 Sudeste 6 Este 0 -- -- 84
2019-11-08 21:00:00 7.3 2 Nordeste 6 Este 0 -- -- 81
2019-11-08 20:00:00 9 0 Calma 8 Este 0 -- -- 76
2019-11-08 19:00:00 11.6 7 Oeste 13 Oeste 0 -- -- 64
2019-11-08 18:00:00 14.6 12 Oeste 17 Oeste 0 -- -- 54
2019-11-08 17:00:00 16.1 10 Oeste 20 Oeste 0 -- -- 47
2019-11-08 16:00:00 16.4 9 Noroeste 23 Noroeste 0 -- -- 46
2019-11-08 15:00:00 15.9 10 Oeste 22 Noroeste 0 -- -- 51
2019-11-08 14:00:00 14.8 6 Oeste 26 Oeste 0 -- -- 56
2019-11-08 13:00:00 13.9 13 Noroeste 26 Noroeste 0 -- -- 58
2019-11-08 12:00:00 12.9 12 Oeste 22 Oeste 0 -- -- 68
2019-11-08 11:00:00 11.8 9 Sudoeste 17 Oeste 0 -- -- 76
2019-11-08 10:00:00 8.7 5 Sudoeste 8 Sudoeste 0 -- -- 93
2019-11-08 09:00:00 4.9 0 Calma 4 Este 0 -- -- 98
2019-11-08 08:00:00 3.2 5 Norte 9 Norte 0 -- -- 96
2019-11-08 07:00:00 3.8 0 Calma 5 Este 0 -- -- 94
2019-11-08 06:00:00 5.1 0 Calma 6 Sudoeste 0 -- -- 94
2019-11-08 05:00:00 4.3 0 Calma 6 Sudeste 0 -- -- 95
2019-11-08 04:00:00 4 0 Calma 4 Norte 0 -- -- 93
2019-11-08 03:00:00 4.7 2 Este 4 Este 0 -- -- 92
2019-11-08 02:00:00 5.7 2 Nordeste 6 Norte 0 -- -- 90
2019-11-08 01:00:00 5.8 2 Sudeste 5 Sudeste 0 -- -- 90
2019-11-08 00:00:00 6.7 2 Norte 6 Norte 0 -- -- 89
2019-11-07 23:00:00 7.7 3 Norte 5 Norte 0 -- -- 86
2019-11-07 22:00:00 8.8 2 Este 12 Oeste 0 -- -- 81
2019-11-07 21:00:00 11.5 12 Oeste 27 Oeste 0 -- -- 70
2019-11-07 20:00:00 12.4 14 Oeste 20 Oeste 0 -- -- 69
2019-11-07 19:00:00 13.1 10 Noroeste 18 Oeste 0 -- -- 69
2019-11-07 18:00:00 15.7 8 Oeste 22 Oeste 0 -- -- 65
2019-11-07 17:00:00 17.4 16 Noroeste 26 Oeste 0 -- -- 60
2019-11-07 16:00:00 17.7 15 Oeste 26 Noroeste 0 -- -- 64
2019-11-07 15:00:00 17 10 Oeste 26 Oeste 0 -- -- 80
2019-11-07 14:00:00 15.4 9 Oeste 23 Oeste 0.2 -- -- 92
2019-11-07 13:00:00 14.2 9 Oeste 17 Sudoeste 0 -- -- 98
2019-11-07 12:00:00 13.6 8 Sudoeste 14 Sudoeste 1.6 -- -- 98
2019-11-07 11:00:00 12.7 10 Sur 15 Sur 2.8 -- -- 98
2019-11-07 10:00:00 12 10 Sur 17 Sur 1.2 -- -- 98
2019-11-07 09:00:00 11.4 7 Sur 12 Sur 1.2 -- -- 97
2019-11-07 08:00:00 10.6 6 Sudoeste 10 Sur 0.8 -- -- 94
2019-11-07 07:00:00 10 5 Sudoeste 7 Sudoeste 0 -- -- 91
2019-11-07 06:00:00 9.5 0 Calma 6 Sudoeste 0 -- -- 89
2019-11-07 05:00:00 8.6 0 Calma 3 Noroeste 0 -- -- 85
2019-11-07 04:00:00 7.5 0 Calma 5 Norte 0 -- -- 84
2019-11-07 03:00:00 6.2 3 Norte 6 Norte 0 -- -- 85
2019-11-07 02:00:00 6.8 0 Calma 4 Norte 0 -- -- 79
2019-11-07 01:00:00 7.6 4 Norte 5 Norte 0 -- -- 77
2019-11-07 00:00:00 8 2 Sudeste 7 Norte 0 -- -- 78
2019-11-06 23:00:00 8.4 0 Calma 6 Norte 0 -- -- 75
2019-11-06 22:00:00 9.4 0 Calma 8 Sudoeste 0 -- -- 70
2019-11-06 21:00:00 9.9 0 Calma 5 Norte 0 -- -- 68
2019-11-06 20:00:00 11.1 2 Este 6 Este 0 -- -- 66
2019-11-06 19:00:00 14 0 Calma 8 Oeste 0 -- -- 56
2019-11-06 18:00:00 17.5 6 Oeste 21 Oeste 0 -- -- 47
2019-11-06 17:00:00 18.4 15 Noroeste 27 Noroeste 0 -- -- 45
2019-11-06 16:00:00 18.4 17 Oeste 27 Oeste 0 -- -- 50
2019-11-06 15:00:00 17.3 7 Sudoeste 22 Oeste 0 -- -- 51
2019-11-06 14:00:00 17.4 8 Sudoeste 18 Sudoeste 0 -- -- 53
2019-11-06 13:00:00 16.3 9 Sudoeste 17 Sudoeste 0 -- -- 61
2019-11-06 12:00:00 14.9 10 Sur 17 Sur 0 -- -- 70
2019-11-06 11:00:00 13.2 5 Sur 10 Sur 0 -- -- 80
2019-11-06 10:00:00 10.3 4 Sur 6 Sudoeste 0 -- -- 92
2019-11-06 09:00:00 5.4 0 Calma 4 Norte 0 -- -- 98
2019-11-06 08:00:00 3.5 3 Norte 4 Norte 0 -- -- 95
2019-11-06 07:00:00 3.9 0 Calma 4 Norte 0 -- -- 94
2019-11-06 06:00:00 4.2 2 Este 3 Este 0 -- -- 93
2019-11-06 05:00:00 4.8 0 Calma 4 Norte 0 -- -- 92
2019-11-06 04:00:00 5.7 0 Calma 4 Este 0 -- -- 91
2019-11-06 03:00:00 6.6 0 Calma 7 Este 0 -- -- 89
2019-11-06 02:00:00 7.5 2 Nordeste 7 Este 0 -- -- 88
2019-11-06 01:00:00 8.2 0 Calma 4 Sudeste 0 -- -- 86
2019-11-06 00:00:00 9.3 3 Sudeste 10 Oeste 0 -- -- 83
2019-11-05 23:00:00 11.9 7 Oeste 15 Oeste 0 -- -- 73
2019-11-05 22:00:00 11.8 3 Sur 18 Oeste 0 -- -- 73
2019-11-05 21:00:00 10.2 3 Norte 5 Nordeste 0 -- -- 78
2019-11-05 20:00:00 12.2 3 Nordeste 7 Este 0 -- -- 72
2019-11-05 19:00:00 15.3 8 Oeste 23 Oeste 0 -- -- 61
2019-11-05 18:00:00 17.5 14 Oeste 23 Oeste 0 -- -- 57
2019-11-05 17:00:00 18.9 15 Oeste 23 Oeste 0 -- -- 55
2019-11-05 16:00:00 17.8 12 Oeste 26 Sudoeste 0 -- -- 61
2019-11-05 15:00:00 17.9 12 Oeste 27 Oeste 0 -- -- 58
2019-11-05 14:00:00 16.7 12 Sudoeste 24 Sudoeste 0 -- -- 65
2019-11-05 13:00:00 16.6 10 Oeste 23 Oeste 0 -- -- 66
2019-11-05 12:00:00 16 9 Oeste 26 Oeste 0 -- -- 66
2019-11-05 11:00:00 15 9 Oeste 26 Oeste 0 -- -- 74
2019-11-05 10:00:00 14.3 11 Oeste 19 Oeste 0 -- -- 75
2019-11-05 09:00:00 11.9 0 Calma 13 Oeste 0 -- -- 88
2019-11-05 08:00:00 10.2 6 Oeste 15 Oeste 0 -- -- 88
2019-11-05 07:00:00 10.5 5 Oeste 11 Oeste 0 -- -- 88
2019-11-05 06:00:00 11.5 0 Calma 9 Oeste 0 -- -- 87
2019-11-05 05:00:00 13.2 9 Oeste 23 Oeste 0 -- -- 84
2019-11-05 04:00:00 14.3 11 Oeste 22 Sudoeste 0.2 -- -- 94
2019-11-05 03:00:00 14.6 13 Sudoeste 26 Oeste 0 -- -- 95
2019-11-05 02:00:00 14.8 12 Oeste 31 Oeste 0.4 -- -- 93
2019-11-05 01:00:00 15.4 20 Sudoeste 40 Sudoeste 0.6 -- -- 93
2019-11-05 00:00:00 16.6 26 Sudoeste 39 Sudoeste 0 -- -- 84
2019-11-04 23:00:00 16.6 27 Sudoeste 44 Sudoeste 0 -- -- 81
2019-11-04 22:00:00 16.9 33 Sudoeste 46 Sudoeste 0 -- -- 79
2019-11-04 21:00:00 17.2 26 Sudoeste 39 Sudoeste 0 -- -- 77
2019-11-04 20:00:00 17.5 25 Sudoeste 40 Sudoeste 0 -- -- 74
2019-11-04 19:00:00 18.5 28 Sudoeste 44 Sudoeste 0 -- -- 70
2019-11-04 18:00:00 19.2 25 Sudoeste 41 Sudoeste 0 -- -- 65
2019-11-04 17:00:00 20.1 28 Sudoeste 40 Sudoeste 0 -- -- 61
2019-11-04 16:00:00 20 23 Sudoeste 46 Sudoeste 0 -- -- 58
2019-11-04 15:00:00 20.4 27 Sudoeste 45 Sudoeste 0 -- -- 60
2019-11-04 14:00:00 20 24 Sudoeste 38 Sudoeste 0 -- -- 66
2019-11-04 13:00:00 18.6 18 Sudoeste 31 Sudoeste 0 -- -- 79
2019-11-04 12:00:00 18.4 15 Oeste 32 Sudoeste 0 -- -- 82
2019-11-04 11:00:00 17 13 Sudoeste 25 Sudoeste 0 -- -- 91
2019-11-04 10:00:00 16.1 14 Sudoeste 21 Sudoeste 0 -- -- 96
2019-11-04 09:00:00 15.7 10 Sur 19 Sudoeste 0 -- -- 95
2019-11-04 08:00:00 15.6 12 Sudoeste 22 Sudoeste 0 -- -- 90
2019-11-04 07:00:00 15.6 14 Sudoeste 23 Sudoeste 0 -- -- 86
2019-11-04 06:00:00 15.8 13 Sudoeste 23 Sudoeste 0 -- -- 86
2019-11-04 05:00:00 15.7 12 Sudoeste 22 Sudoeste 0 -- -- 88
2019-11-04 04:00:00 16.1 16 Sudoeste 23 Sudoeste 0 -- -- 87
2019-11-04 03:00:00 16.6 14 Sudoeste 23 Sudoeste 0 -- -- 86
2019-11-04 02:00:00 16.8 15 Sur 21 Sudoeste 0 -- -- 89
2019-11-04 01:00:00 16.9 12 Sur 20 Sudoeste 0 -- -- 87
2019-11-04 00:00:00 17.2 13 Sudoeste 26 Sudoeste 0 -- -- 84
2019-11-03 23:00:00 18.1 20 Sudoeste 30 Sudoeste 0 -- -- 79
2019-11-03 22:00:00 17.9 12 Sudoeste 18 Sudoeste 0 -- -- 80
2019-11-03 21:00:00 18.4 10 Sudoeste 18 Sudoeste 0 -- -- 73
2019-11-03 20:00:00 18.7 7 Oeste 19 Sudoeste 0 -- -- 62
2019-11-03 19:00:00 20.2 9 Oeste 23 Oeste 0 -- -- 55
2019-11-03 18:00:00 21.9 21 Oeste 39 Oeste 0 -- -- 51
2019-11-03 17:00:00 23.5 28 Oeste 46 Noroeste 0 -- -- 49
2019-11-03 16:00:00 24.1 26 Oeste 46 Oeste 0 -- -- 52
2019-11-03 15:00:00 23.4 24 Oeste 42 Oeste 0 -- -- 52
2019-11-03 14:00:00 22.5 22 Oeste 39 Sudoeste 0 -- -- 60
2019-11-03 13:00:00 20.1 23 Sudoeste 40 Sudoeste 0 -- -- 69
2019-11-03 12:00:00 19.5 26 Sudoeste 45 Sudoeste 0 -- -- 70
2019-11-03 11:00:00 18.9 24 Sudoeste 40 Sudoeste 0 -- -- 75
2019-11-03 10:00:00 17.4 26 Sudoeste 34 Sudoeste 0 -- -- 80
2019-11-03 09:00:00 16.8 21 Sudoeste 30 Sudoeste 0 -- -- 85
2019-11-03 08:00:00 16.2 19 Sudoeste 30 Sudoeste 0 -- -- 86
2019-11-03 07:00:00 16.5 20 Sudoeste 28 Sudoeste 0 -- -- 89
2019-11-03 06:00:00 16.6 18 Sudoeste 37 Sudoeste 0 -- -- 89
2019-11-03 05:00:00 16.8 17 Sudoeste 28 Sudoeste 0 -- -- 89
2019-11-03 04:00:00 16.9 17 Sudoeste 31 Sudoeste 0 -- -- 90
2019-11-03 03:00:00 17.2 19 Sudoeste 34 Sudoeste 0 -- -- 89
2019-11-03 02:00:00 17.3 22 Sudoeste 31 Sudoeste 0 -- -- 90
2019-11-03 01:00:00 17.4 22 Sudoeste 32 Sudoeste 0 -- -- 90
2019-11-03 00:00:00 17.6 21 Sudoeste 32 Sudoeste 0 -- -- 89
2019-11-02 23:00:00 17.8 25 Sudoeste 39 Sudoeste 0 -- -- 90
2019-11-02 22:00:00 18.1 27 Sudoeste 43 Sudoeste 0 -- -- 88
2019-11-02 21:00:00 18.3 30 Sudoeste 42 Sudoeste 0 -- -- 87
2019-11-02 20:00:00 18.9 35 Sudoeste 46 Sudoeste 0 -- -- 82
2019-11-02 19:00:00 19.9 30 Sudoeste 42 Sudoeste 0 -- -- 77
2019-11-02 18:00:00 21.2 33 Sudoeste 45 Sudoeste 0 -- -- 71
2019-11-02 17:00:00 23 35 Sudoeste 49 Sudoeste 0 -- -- 65
2019-11-02 16:00:00 23.5 33 Sudoeste 46 Sudoeste 0 -- -- 63
2019-11-02 15:00:00 24.1 29 Sudoeste 42 Sudoeste 0 -- -- 58
2019-11-02 14:00:00 23.9 31 Sudoeste 45 Sudoeste 0 -- -- 61
2019-11-02 13:00:00 22.6 18 Sudoeste 33 Sudoeste 0 -- -- 69
2019-11-02 12:00:00 21.7 19 Oeste 33 Sudoeste 0 -- -- 75
2019-11-02 11:00:00 19.8 16 Sudoeste 30 Sudoeste 0 -- -- 83
2019-11-02 10:00:00 18.4 18 Sudoeste 32 Sudoeste 0 -- -- 91
2019-11-02 09:00:00 17.9 12 Sudoeste 38 Sudoeste 0 -- -- 92
2019-11-02 08:00:00 17.8 27 Sudoeste 37 Sudoeste 0 -- -- 93
2019-11-02 07:00:00 17.9 24 Sudoeste 36 Sudoeste 0 -- -- 95
2019-11-02 06:00:00 17.9 17 Sudoeste 27 Sudoeste 0 -- -- 95
2019-11-02 05:00:00 17.8 19 Sudoeste 26 Sudoeste 0 -- -- 95
2019-11-02 04:00:00 17.9 13 Sudoeste 26 Sudoeste 0 -- -- 95
2019-11-02 03:00:00 17.8 14 Sudoeste 23 Sudoeste 0 -- -- 95
2019-11-02 02:00:00 18.2 16 Sudoeste 23 Sudoeste 0 -- -- 92
2019-11-02 01:00:00 18.3 13 Sudoeste 26 Sudoeste 0 -- -- 91
2019-11-02 00:00:00 18.3 19 Sudoeste 26 Sudoeste 0 -- -- 91
2019-11-01 23:00:00 18.6 19 Sudoeste 28 Sudoeste 0 -- -- 90
2019-11-01 22:00:00 19 15 Sudoeste 26 Sudoeste 0 -- -- 88
2019-11-01 21:00:00 19.8 20 Sudoeste 30 Sudoeste 0 -- -- 86
2019-11-01 20:00:00 21 19 Sudoeste 32 Sudoeste 0 -- -- 81
2019-11-01 19:00:00 22.1 19 Sudoeste 41 Sudoeste 0 -- -- 78
2019-11-01 18:00:00 24.5 17 Sudoeste 31 Sudoeste 0 -- -- 68
2019-11-01 17:00:00 24.8 11 Oeste 31 Sudoeste 0 -- -- 67
2019-11-01 16:00:00 25.1 19 Sudoeste 30 Sudoeste 0 -- -- 61
2019-11-01 15:00:00 25.6 16 Sudoeste 28 Sudoeste 0 -- -- 61
2019-11-01 14:00:00 24.2 10 Oeste 26 Sudoeste 0 -- -- 65
2019-11-01 13:00:00 24.1 11 Sudoeste 21 Sudoeste 0 -- -- 66
2019-11-01 12:00:00 22.7 10 Sudoeste 19 Sudoeste 0 -- -- 72
2019-11-01 11:00:00 20.9 9 Sudoeste 13 Sudoeste 0 -- -- 79
2019-11-01 10:00:00 19.4 8 Sudoeste 13 Sudoeste 0 -- -- 84
2019-11-01 09:00:00 18.2 3 Sudoeste 5 Sudeste 0 -- -- 87
2019-11-01 08:00:00 18 4 Sudeste 7 Este 0 -- -- 86
2019-11-01 07:00:00 18.7 9 Noroeste 15 Noroeste 0 -- -- 81
2019-11-01 06:00:00 17.5 0 Calma 11 Oeste 0 -- -- 86
2019-11-01 05:00:00 17.7 4 Sudeste 7 Sudeste 0 -- -- 87
2019-11-01 04:00:00 19.1 2 Oeste 12 Oeste 0 -- -- 84
2019-11-01 03:00:00 20.4 10 Noroeste 21 Noroeste 0 -- -- 80
2019-11-01 02:00:00 20.2 5 Sudoeste 8 Sudoeste 0 -- -- 83
2019-11-01 01:00:00 20.3 4 Sudeste 9 Sur 0 -- -- 82
2019-11-01 00:00:00 20.4 6 Sudoeste 10 Sudoeste 0 -- -- 81
2019-10-31 23:00:00 20.1 4 Sur 9 Sudoeste 0 -- -- 77
2019-10-31 22:00:00 21.3 3 Sur 12 Sur 0 -- -- 71
2019-10-31 21:00:00 21 2 Este 5 Este 0 -- -- 70
2019-10-31 20:00:00 21.9 2 Oeste 10 Oeste 0 -- -- 65
2019-10-31 19:00:00 23.3 3 Oeste 14 Oeste 0 -- -- 61
2019-10-31 18:00:00 24.5 7 Oeste 19 Oeste 0 -- -- 59
2019-10-31 17:00:00 25 8 Oeste 21 Oeste 0 -- -- 57
2019-10-31 16:00:00 25.9 10 Oeste 22 Sudoeste 0 -- -- 55
2019-10-31 15:00:00 25.6 11 Oeste 21 Oeste 0 -- -- 57
2019-10-31 14:00:00 24.7 10 Oeste 21 Oeste 0 -- -- 60
2019-10-31 13:00:00 23.7 11 Sudoeste 20 Sur 0 -- -- 66
2019-10-31 12:00:00 22.6 6 Sur 14 Oeste 0 -- -- 72
2019-10-31 11:00:00 20.2 5 Sur 17 Sudoeste 0 -- -- 81
2019-10-31 10:00:00 18.6 4 Sudoeste 8 Sudoeste 0 -- -- 87
2019-10-31 09:00:00 16.6 2 Sudeste 4 Sudeste 0 -- -- 89
2019-10-31 08:00:00 14.9 2 Nordeste 3 Nordeste 0 -- -- 89
2019-10-31 07:00:00 14.9 0 Calma 4 Sur 0 -- -- 90
2019-10-31 06:00:00 14.9 2 Sur 5 Este 0 -- -- 90
2019-10-31 05:00:00 15.7 2 Sur 4 Sudeste 0 -- -- 89
2019-10-31 04:00:00 16.1 2 Sur 8 Sudeste 0 -- -- 89
2019-10-31 03:00:00 16.7 3 Sur 8 Sur 0 -- -- 87
2019-10-31 02:00:00 17.8 4 Sur 10 Sur 0 -- -- 83
2019-10-31 01:00:00 18.5 6 Sur 13 Sur 0 -- -- 78
2019-10-31 00:00:00 18.9 5 Sur 13 Sudoeste 0 -- -- 71
2019-10-30 23:00:00 19.5 6 Sur 10 Sur 0 -- -- 67
2019-10-30 22:00:00 20.7 9 Sur 13 Sudoeste 0 -- -- 64
2019-10-30 21:00:00 20.3 3 Sur 6 Sur 0 -- -- 62
2019-10-30 20:00:00 20.6 0 Calma 5 Sudeste 0 -- -- 60
2019-10-30 19:00:00 22.3 2 Sudoeste 18 Oeste 0 -- -- 53
2019-10-30 18:00:00 24.2 9 Oeste 21 Oeste 0 -- -- 51
2019-10-30 17:00:00 25.6 12 Oeste 20 Oeste 0 -- -- 46
2019-10-30 16:00:00 26.4 10 Oeste 16 Oeste 0 -- -- 45
2019-10-30 15:00:00 26 5 Sudoeste 11 Nordeste 0 -- -- 46
2019-10-30 14:00:00 24.6 6 Norte 13 Este 0 -- -- 50
2019-10-30 13:00:00 23.5 5 Norte 10 Norte 0 -- -- 55
2019-10-30 12:00:00 22.3 5 Este 9 Nordeste 0 -- -- 63
2019-10-30 11:00:00 20.4 4 Noroeste 7 Norte 0 -- -- 73
2019-10-30 10:00:00 17.5 2 Noroeste 4 Noroeste 0 -- -- 81
2019-10-30 09:00:00 14.4 3 Nordeste 8 Norte 0 -- -- 87
2019-10-30 08:00:00 11.8 6 Norte 9 Norte 0 -- -- 91
2019-10-30 07:00:00 11 4 Norte 5 Norte 0 -- -- 88
2019-10-30 06:00:00 11.7 2 Norte 5 Norte 0 -- -- 87
2019-10-30 05:00:00 11.8 2 Norte 5 Norte 0 -- -- 84
2019-10-30 04:00:00 13.3 0 Calma 5 Norte 0 -- -- 79
2019-10-30 03:00:00 13.5 3 Norte 6 Norte 0 -- -- 82
2019-10-30 02:00:00 13.1 3 Este 5 Este 0 -- -- 82
2019-10-30 01:00:00 14.3 2 Norte 8 Sudoeste 0 -- -- 78
2019-10-30 00:00:00 14.6 0 Calma 5 Norte 0 -- -- 74
2019-10-29 23:00:00 15.4 3 Norte 4 Norte 0 -- -- 75
2019-10-29 22:00:00 16.1 0 Calma 5 Este 0 -- -- 72
2019-10-29 21:00:00 17 0 Calma 5 Este 0 -- -- 70
2019-10-29 20:00:00 18.4 5 Este 6 Este 0 -- -- 64
2019-10-29 19:00:00 21.3 3 Sudoeste 8 Oeste 0 -- -- 58
2019-10-29 18:00:00 23.5 4 Oeste 13 Oeste 0 -- -- 55
2019-10-29 17:00:00 24.9 4 Nordeste 12 Noroeste 0 -- -- 50
2019-10-29 16:00:00 24.3 3 Nordeste 13 Norte 0 -- -- 54
2019-10-29 15:00:00 24 4 Norte 14 Noroeste 0 -- -- 57
2019-10-29 14:00:00 23.1 6 Noroeste 17 Norte 0 -- -- 63
2019-10-29 13:00:00 22.2 4 Oeste 12 Nordeste 0 -- -- 66
2019-10-29 12:00:00 20.1 4 Norte 14 Nordeste 0 -- -- 76
2019-10-29 11:00:00 19.1 6 Norte 12 Norte 0 -- -- 80
2019-10-29 10:00:00 17.5 3 Nordeste 6 Nordeste 0 -- -- 87
2019-10-29 09:00:00 16 2 Sudeste 8 Sudoeste 0 -- -- 89
2019-10-29 08:00:00 15.7 3 Sur 6 Sudeste 0 -- -- 89
2019-10-29 07:00:00 15.1 2 Norte 7 Norte 0 -- -- 90
2019-10-29 06:00:00 12.9 0 Calma 5 Norte 0 -- -- 86
2019-10-29 05:00:00 12.5 0 Calma 5 Este 0 -- -- 84
2019-10-29 04:00:00 12.6 0 Calma 6 Noroeste 0 -- -- 82
2019-10-29 03:00:00 11.9 0 Calma 3 Nordeste 0 -- -- 80
2019-10-29 02:00:00 12.7 3 Norte 4 Norte 0 -- -- 80
2019-10-29 01:00:00 13.5 4 Norte 6 Norte 0 -- -- 79
2019-10-29 00:00:00 13.5 0 Calma 4 Este 0 -- -- 78
2019-10-28 23:00:00 14.7 0 Calma 6 Este 0 -- -- 72
2019-10-28 22:00:00 15.6 0 Calma 3 Este 0 -- -- 68
2019-10-28 21:00:00 16.3 3 Este 6 Sudeste 0 -- -- 67
2019-10-28 20:00:00 17.8 3 Sudeste 6 Oeste 0 -- -- 65
2019-10-28 19:00:00 20.4 5 Oeste 11 Sudoeste 0 -- -- 59
2019-10-28 18:00:00 22 9 Oeste 19 Oeste 0 -- -- 57
2019-10-28 17:00:00 23.5 13 Sudoeste 22 Oeste 0 -- -- 52
2019-10-28 16:00:00 23.4 11 Oeste 22 Sudoeste 0 -- -- 53
2019-10-28 15:00:00 24.5 9 Oeste 21 Sudoeste 0 -- -- 49
2019-10-28 14:00:00 24.3 12 Sur 18 Sur 0 -- -- 47
2019-10-28 13:00:00 23.5 6 Oeste 15 Sudoeste 0 -- -- 48
2019-10-28 12:00:00 22.4 5 Sudoeste 12 Sudoeste 0 -- -- 48
2019-10-28 11:00:00 20.5 4 Oeste 11 Sudoeste 0 -- -- 56
2019-10-28 10:00:00 18.2 2 Sudeste 6 Nordeste 0 -- -- 62
2019-10-28 09:00:00 12.6 0 Calma 5 Sudoeste 0 -- -- 80
2019-10-28 08:00:00 12.3 3 Este 5 Este 0 -- -- 74
2019-10-28 07:00:00 13.7 4 Este 8 Noroeste 0 -- -- 72
2019-10-28 06:00:00 13.6 5 Este 14 Oeste 0 -- -- 73
2019-10-28 05:00:00 13.4 0 Calma 8 Este 0 -- -- 71
2019-10-28 04:00:00 13.1 2 Sudeste 4 Norte 0 -- -- 72
2019-10-28 03:00:00 13 3 Norte 5 Este 0 -- -- 70
2019-10-28 02:00:00 13.4 0 Calma 4 Norte 0 -- -- 66
2019-10-28 01:00:00 13.3 0 Calma 4 Sur 0 -- -- 66
2019-10-28 00:00:00 14.1 3 Sur 4 Sur 0 -- -- 64
2019-10-27 23:00:00 15 0 Calma 5 Sudoeste 0 -- -- 58
2019-10-27 22:00:00 16.1 0 Calma 2 Nordeste 0 -- -- 58
2019-10-27 21:00:00 17.3 0 Calma 10 Sudeste 0 -- -- 55
2019-10-27 20:00:00 19.4 2 Sudeste 6 Sudeste 0 -- -- 48
2019-10-27 19:00:00 21.9 3 Sur 13 Oeste 0 -- -- 42
2019-10-27 18:00:00 25.2 12 Oeste 17 Oeste 0 -- -- 36
2019-10-27 17:00:00 27.4 8 Sudoeste 15 Sudoeste 0 -- -- 33
2019-10-27 16:00:00 27.4 5 Sudoeste 14 Sudoeste 0 -- -- 33
2019-10-27 15:00:00 27.3 5 Sur 16 Sudoeste 0 -- -- 34
2019-10-27 14:00:00 25.8 7 Oeste 14 Sudoeste 0 -- -- 36
2019-10-27 13:00:00 24.4 4 Noroeste 10 Noroeste 0 -- -- 40
2019-10-27 12:00:00 21.9 8 Norte 15 Norte 0 -- -- 47
2019-10-27 11:00:00 19.7 10 Norte 17 Norte 0 -- -- 52
2019-10-27 10:00:00 16.9 5 Norte 11 Norte 0 -- -- 60
2019-10-27 09:00:00 12.9 4 Norte 11 Norte 0 -- -- 70
2019-10-27 08:00:00 10.8 6 Norte 17 Norte 0 -- -- 74
2019-10-27 07:00:00 11.3 9 Norte 14 Norte 0 -- -- 72
2019-10-27 06:00:00 11.5 4 Norte 13 Norte 0 -- -- 70
2019-10-27 05:00:00 11.3 7 Norte 11 Norte 0 -- -- 71
2019-10-27 04:00:00 11.5 5 Norte 8 Nordeste 0 -- -- 70
2019-10-27 03:00:00 11.1 3 Norte 6 Norte 0 -- -- 71
2019-10-27 02:00:00 11.8 3 Norte 8 Norte 0 -- -- 68
2019-10-27 01:00:00 13.6 4 Norte 6 Norte 0 -- -- 61
2019-10-27 00:00:00 14.6 3 Norte 9 Nordeste 0 -- -- 59
2019-10-26 23:00:00 15.6 3 Norte 6 Sur 0 -- -- 54
2019-10-26 22:00:00 16.5 0 Calma 5 Norte 0 -- -- 53
2019-10-26 21:00:00 18.4 0 Calma 5 Nordeste 0 -- -- 45
2019-10-26 20:00:00 22.1 4 Nordeste 10 Noroeste 0 -- -- 38
2019-10-26 19:00:00 26.5 8 Noroeste 12 Noroeste 0 -- -- 31
2019-10-26 18:00:00 28.4 6 Noroeste 14 Noroeste 0 -- -- 27
2019-10-26 17:00:00 29.2 5 Sudoeste 14 Sudoeste 0 -- -- 27
2019-10-26 16:00:00 28.1 5 Oeste 13 Sudoeste 0 -- -- 28
2019-10-26 15:00:00 25.9 4 Noroeste 14 Norte 0 -- -- 38
2019-10-26 14:00:00 24.1 10 Norte 18 Norte 0 -- -- 46
2019-10-26 13:00:00 21.4 12 Norte 19 Norte 0 -- -- 52
2019-10-26 12:00:00 18.3 11 Norte 20 Nordeste 0 -- -- 61
2019-10-26 11:00:00 14.9 11 Norte 19 Norte 0 -- -- 73
2019-10-26 10:00:00 12.2 9 Norte 18 Norte 0 -- -- 81
2019-10-26 09:00:00 10.1 9 Norte 16 Norte 0 -- -- 86
2019-10-26 08:00:00 10 2 Norte 10 Norte 0 -- -- 84
2019-10-26 07:00:00 9.9 5 Nordeste 10 Nordeste 0 -- -- 84
2019-10-26 06:00:00 11.3 5 Norte 12 Nordeste 0 -- -- 80
2019-10-26 05:00:00 11.7 3 Nordeste 13 Norte 0 -- -- 77
2019-10-26 04:00:00 11.9 4 Norte 12 Norte 0 -- -- 74
2019-10-26 03:00:00 12.3 8 Norte 14 Norte 0 -- -- 68
2019-10-26 02:00:00 15.2 2 Sudoeste 10 Sur 0 -- -- 60
2019-10-26 01:00:00 14.3 2 Sudeste 8 Sur 0 -- -- 63
2019-10-26 00:00:00 13.2 2 Norte 4 Norte 0 -- -- 67
2019-10-25 23:00:00 14.9 0 Calma 7 Sudoeste 0 -- -- 62
2019-10-25 22:00:00 16.4 2 Oeste 8 Este 0 -- -- 60
2019-10-25 21:00:00 17.8 3 Nordeste 8 Sudeste 0 -- -- 58
2019-10-25 20:00:00 21.4 3 Este 10 Nordeste 0 -- -- 49
2019-10-25 19:00:00 24.4 10 Nordeste 14 Norte 0 -- -- 41
2019-10-25 18:00:00 25.3 12 Norte 18 Nordeste 0 -- -- 38
2019-10-25 17:00:00 25.7 13 Nordeste 20 Nordeste 0 -- -- 36
2019-10-25 16:00:00 25.2 8 Norte 17 Nordeste 0 -- -- 41
2019-10-25 15:00:00 24 10 Nordeste 21 Nordeste 0 -- -- 45
2019-10-25 14:00:00 22.1 12 Norte 20 Norte 0 -- -- 50
2019-10-25 13:00:00 19.4 10 Norte 15 Norte 0 -- -- 56
2019-10-25 12:00:00 16.6 9 Norte 15 Norte 0 -- -- 66
2019-10-25 11:00:00 14.4 10 Norte 17 Norte 0 -- -- 71
2019-10-25 10:00:00 11.6 7 Norte 17 Nordeste 0 -- -- 82
2019-10-25 09:00:00 10 7 Norte 16 Nordeste 0 -- -- 86
2019-10-25 08:00:00 10.1 7 Norte 23 Norte 0 -- -- 86
2019-10-25 07:00:00 10.4 11 Norte 25 Norte 0 -- -- 86
2019-10-25 06:00:00 10.3 12 Norte 25 Nordeste 0 -- -- 86
2019-10-25 05:00:00 11 11 Norte 19 Norte 0 -- -- 83
2019-10-25 04:00:00 11 13 Norte 22 Norte 0 -- -- 85
2019-10-25 03:00:00 10.7 3 Norte 9 Norte 0 -- -- 85
2019-10-25 02:00:00 11.3 0 Calma 14 Norte 0 -- -- 82
2019-10-25 01:00:00 11.6 6 Norte 12 Norte 0 -- -- 82
2019-10-25 00:00:00 11.8 4 Norte 8 Norte 0 -- -- 82
2019-10-24 23:00:00 11.6 4 Norte 5 Norte 0 -- -- 81
2019-10-24 22:00:00 12.7 0 Calma 4 Norte 0 -- -- 78
2019-10-24 21:00:00 14.2 0 Calma 4 Este 0 -- -- 73
2019-10-24 20:00:00 16.9 2 Sudeste 7 Este 0 -- -- 63
2019-10-24 19:00:00 19 4 Nordeste 8 Norte 0 -- -- 54
2019-10-24 18:00:00 19.8 5 Este 10 Norte 0 -- -- 52
2019-10-24 17:00:00 19.8 4 Noroeste 16 Noroeste 0 -- -- 52
2019-10-24 16:00:00 19.1 5 Oeste 13 Sudoeste 0 -- -- 53
2019-10-24 15:00:00 18.5 6 Sur 15 Sur 0 -- -- 59
2019-10-24 14:00:00 17.8 10 Sudoeste 17 Sudoeste 0 -- -- 63
2019-10-24 13:00:00 16.5 9 Sur 17 Sur 0 -- -- 69
2019-10-24 12:00:00 14.6 8 Sudoeste 15 Sur 0 -- -- 75
2019-10-24 11:00:00 12.6 8 Sudoeste 13 Sudoeste 0 -- -- 85
2019-10-24 10:00:00 10.5 4 Sudoeste 7 Sudoeste 0 -- -- 94
2019-10-24 09:00:00 9 3 Sudeste 12 Sudoeste 0 -- -- 94
2019-10-24 08:00:00 9.9 6 Sudoeste 12 Sudoeste 0 -- -- 93
2019-10-24 07:00:00 11.2 11 Sudoeste 13 Sudoeste 0 -- -- 91
2019-10-24 06:00:00 11.7 7 Sur 15 Sudoeste 0 -- -- 90
2019-10-24 05:00:00 12.3 7 Sudoeste 12 Sudoeste 0 -- -- 89
2019-10-24 04:00:00 12.5 0 Calma 6 Sur 0 -- -- 92
2019-10-24 03:00:00 12.5 0 Calma 4 Sudoeste 0 -- -- 92
2019-10-24 02:00:00 12.5 2 Sudoeste 8 Sur 0 -- -- 91
2019-10-24 01:00:00 12.7 0 Calma 8 Sudoeste 0 -- -- 92
2019-10-24 00:00:00 12.7 8 Oeste 26 Oeste 0 -- -- 88
2019-10-23 23:00:00 12.8 0 Calma 8 Sur 0 -- -- 93
2019-10-23 22:00:00 12.8 5 Sur 12 Sur 0 -- -- 93
2019-10-23 21:00:00 13.3 4 Sur 13 Sudoeste 0.2 -- -- 89
2019-10-23 20:00:00 13.9 7 Sudoeste 21 Sudoeste 0 -- -- 82
2019-10-23 19:00:00 14.2 9 Sudoeste 23 Sudoeste 0 -- -- 78
2019-10-23 18:00:00 14.5 12 Oeste 32 Sudoeste 0 -- -- 77
2019-10-23 17:00:00 15.7 15 Oeste 35 Sudoeste 0 -- -- 71
2019-10-23 16:00:00 16.1 19 Oeste 45 Sudoeste 0 -- -- 65
2019-10-23 15:00:00 16.1 25 Sudoeste 49 Sudoeste 0 -- -- 66
2019-10-23 14:00:00 14.2 19 Sur 26 Sur 0 -- -- 79
2019-10-23 13:00:00 11.8 6 Sudoeste 22 Oeste 0 -- -- 86
2019-10-23 12:00:00 11.8 15 Sudoeste 20 Sudoeste 0 -- -- 89
2019-10-23 11:00:00 10.6 10 Sudoeste 14 Sur 0 -- -- 95
2019-10-23 10:00:00 9.3 0 Calma 4 Sur 0 -- -- 97
2019-10-23 09:00:00 7.6 0 Calma 3 Norte 0 -- -- 96
2019-10-23 08:00:00 6.7 0 Calma 4 Sudeste 0 -- -- 94
2019-10-23 07:00:00 7.4 0 Calma 11 Sur 0 -- -- 91
2019-10-23 06:00:00 8.7 9 Sur 12 Sur 0 -- -- 93
2019-10-23 05:00:00 8.8 7 Sur 14 Sur 0 -- -- 91
2019-10-23 04:00:00 8.2 6 Sur 11 Sur 0 -- -- 94
2019-10-23 03:00:00 8.9 0 Calma 4 Oeste 0 -- -- 89
2019-10-23 02:00:00 9.9 2 Sudeste 9 Sur 0 -- -- 88
2019-10-23 01:00:00 11 6 Sur 9 Sudoeste 0 -- -- 84
2019-10-23 00:00:00 11.6 5 Sur 14 Sur 0 -- -- 82
2019-10-22 23:00:00 12 8 Sur 18 Sudoeste 0 -- -- 78
2019-10-22 22:00:00 12.8 8 Sudeste 22 Oeste 0 -- -- 75
2019-10-22 21:00:00 13.7 11 Oeste 22 Oeste 0 -- -- 71
2019-10-22 20:00:00 14.9 10 Sudoeste 26 Sudoeste 0 -- -- 70
2019-10-22 19:00:00 15.9 12 Noroeste 36 Noroeste 0 -- -- 56
2019-10-22 18:00:00 17.4 29 Noroeste 38 Noroeste 0 -- -- 51
2019-10-22 17:00:00 19 8 Noroeste 18 Noroeste 0 -- -- 48
2019-10-22 16:00:00 19.9 7 Nordeste 15 Nordeste 0 -- -- 47
2019-10-22 15:00:00 19.5 10 Noroeste 15 Noroeste 0 -- -- 50
2019-10-22 14:00:00 18.6 4 Sur 9 Sudoeste 0 -- -- 57
2019-10-22 13:00:00 17.5 4 Sudoeste 8 Sudoeste 0 -- -- 62
2019-10-22 12:00:00 15.3 0 Calma 6 Oeste 0 -- -- 70
2019-10-22 11:00:00 12.4 3 Oeste 5 Oeste 0 -- -- 81
2019-10-22 10:00:00 9.1 0 Calma 7 Nordeste 0 -- -- 96
2019-10-22 09:00:00 8.3 0 Calma 6 Norte 0 -- -- 91
2019-10-22 08:00:00 9.1 2 Norte 8 Nordeste 0 -- -- 89
2019-10-22 07:00:00 10 0 Calma 6 Nordeste 0 -- -- 88
2019-10-22 06:00:00 9.8 3 Este 8 Nordeste 0 -- -- 92
2019-10-22 05:00:00 9.8 4 Sudoeste 6 Sudoeste 0 -- -- 91
2019-10-22 04:00:00 10.3 3 Norte 8 Este 0 -- -- 90
2019-10-22 03:00:00 10.4 3 Nordeste 7 Este 0 -- -- 90
2019-10-22 02:00:00 10.1 2 Este 4 Sudeste 0 -- -- 88
2019-10-22 01:00:00 10.8 2 Oeste 5 Este 0 -- -- 86
2019-10-22 00:00:00 11.6 3 Norte 9 Este 0 -- -- 81
2019-10-21 23:00:00 11.4 2 Nordeste 9 Norte 0 -- -- 83
2019-10-21 22:00:00 12.6 3 Este 4 Este 0 -- -- 78
2019-10-21 21:00:00 14.5 0 Calma 8 Nordeste 0 -- -- 72
2019-10-21 20:00:00 16.9 2 Norte 5 Oeste 0 -- -- 61
2019-10-21 19:00:00 19.2 0 Calma 12 Sudoeste 0 -- -- 49
2019-10-21 18:00:00 20.2 6 Sur 14 Sudoeste 0 -- -- 45
2019-10-21 17:00:00 20.8 4 Sur 15 Sudoeste 0 -- -- 48
2019-10-21 16:00:00 20.4 5 Sur 15 Sudoeste 0 -- -- 48
2019-10-21 15:00:00 19 5 Noroeste 10 Noroeste 0 -- -- 54
2019-10-21 14:00:00 18.4 4 Sudeste 10 Este 0 -- -- 58
2019-10-21 13:00:00 16.6 5 Nordeste 11 Nordeste 0 -- -- 68
2019-10-21 12:00:00 15.3 5 Nordeste 15 Noroeste 0 -- -- 75
2019-10-21 11:00:00 13.4 8 Norte 14 Noroeste 0 -- -- 88
2019-10-21 10:00:00 10.6 0 Calma 5 Norte 0 -- -- 98
2019-10-21 09:00:00 7.7 3 Norte 6 Norte 0 -- -- 97
2019-10-21 08:00:00 7.5 3 Norte 6 Norte 0 -- -- 96
2019-10-21 07:00:00 7.7 3 Norte 5 Norte 0 -- -- 96
2019-10-21 06:00:00 8 0 Calma 7 Norte 0 -- -- 95
2019-10-21 05:00:00 8.4 3 Norte 5 Norte 0 -- -- 95
2019-10-21 04:00:00 8.7 3 Norte 5 Norte 0 -- -- 94
2019-10-21 03:00:00 9.2 0 Calma 3 Norte 0 -- -- 94
2019-10-21 02:00:00 9.7 2 Nordeste 5 Norte 0 -- -- 93
2019-10-21 01:00:00 10.5 2 Norte 8 Sur 0 -- -- 90
2019-10-21 00:00:00 10.9 3 Sudoeste 4 Sur 0 -- -- 89
2019-10-20 23:00:00 11.7 0 Calma 5 Este 0 -- -- 87
2019-10-20 22:00:00 12.1 4 Este 5 Este 0 -- -- 85
2019-10-20 21:00:00 13.3 0 Calma 4 Sudeste 0 -- -- 82
2019-10-20 20:00:00 14.6 0 Calma 19 Sudoeste 0 -- -- 75
2019-10-20 19:00:00 17 17 Sudoeste 28 Sudoeste 0 -- -- 63
2019-10-20 18:00:00 17.8 15 Sudoeste 29 Sudoeste 0 -- -- 61
2019-10-20 17:00:00 18.6 18 Sudoeste 30 Sudoeste 0 -- -- 61
2019-10-20 16:00:00 17.8 15 Sudoeste 28 Sudoeste 0 -- -- 65
2019-10-20 15:00:00 17.5 18 Sudoeste 31 Sudoeste 0 -- -- 63
2019-10-20 14:00:00 16.2 13 Sudoeste 28 Sudoeste 0 -- -- 71
2019-10-20 13:00:00 16.1 20 Sudoeste 29 Sudoeste 0 -- -- 78
2019-10-20 12:00:00 14.8 17 Sudoeste 24 Sudoeste 0 -- -- 83
2019-10-20 11:00:00 13.3 16 Sudoeste 24 Sudoeste 0 -- -- 95
2019-10-20 10:00:00 12.8 12 Sudoeste 23 Sudoeste 0 -- -- 98
2019-10-20 09:00:00 12.8 14 Sudoeste 19 Sudoeste 0 -- -- 97
2019-10-20 08:00:00 13 12 Sudoeste 20 Sudoeste 0 -- -- 96
2019-10-20 07:00:00 13.5 10 Sudoeste 20 Sudoeste 0 -- -- 96
2019-10-20 06:00:00 14.1 13 Sudoeste 23 Sudoeste 0 -- -- 96
2019-10-20 05:00:00 14.4 19 Sudoeste 33 Sudoeste 0 -- -- 96
2019-10-20 04:00:00 14.8 23 Sudoeste 32 Sudoeste 0 -- -- 97
2019-10-20 03:00:00 14.9 16 Sudoeste 37 Sudoeste 0 -- -- 97
2019-10-20 02:00:00 15.3 21 Sudoeste 31 Sudoeste 0.2 -- -- 97
2019-10-20 01:00:00 15.2 13 Sur 19 Sudoeste 0.6 -- -- 97
2019-10-20 00:00:00 15.9 18 Sudoeste 37 Sudoeste 9.2 -- -- 95
2019-10-19 23:00:00 17.6 25 Sudoeste 54 Sudoeste 3 -- -- 95
2019-10-19 22:00:00 20.4 26 Sudoeste 44 Sudoeste 0 -- -- 75
2019-10-19 21:00:00 20.4 28 Sudoeste 43 Sudoeste 0 -- -- 75
2019-10-19 20:00:00 20.9 27 Sudoeste 42 Sudoeste 0 -- -- 74
2019-10-19 19:00:00 22.5 28 Sudoeste 42 Sudoeste 0 -- -- 62
2019-10-19 18:00:00 23.9 26 Sudoeste 42 Sudoeste 0 -- -- 57
2019-10-19 17:00:00 24.1 31 Sudoeste 46 Sudoeste 0 -- -- 56
2019-10-19 16:00:00 24.8 30 Sudoeste 41 Sudoeste 0 -- -- 53
2019-10-19 15:00:00 23.7 24 Sudoeste 35 Sudoeste 0 -- -- 54
2019-10-19 14:00:00 22.4 16 Sudoeste 26 Sudoeste 0 -- -- 62
2019-10-19 13:00:00 20.7 15 Sudoeste 20 Sudoeste 0 -- -- 71
2019-10-19 12:00:00 19.2 7 Sudoeste 12 Sudoeste 0 -- -- 81
2019-10-19 11:00:00 18.3 7 Sudoeste 15 Sudoeste 0 -- -- 85
2019-10-19 10:00:00 17.9 10 Sudoeste 14 Sudoeste 0 -- -- 87
2019-10-19 09:00:00 16.6 6 Sur 10 Sur 0 -- -- 91
2019-10-19 08:00:00 16.3 6 Sur 9 Sudoeste 0 -- -- 90
2019-10-19 07:00:00 16.7 6 Sudoeste 12 Sudoeste 0 -- -- 88
2019-10-19 06:00:00 17.6 7 Sudoeste 12 Sudoeste 0 -- -- 85
2019-10-19 05:00:00 17.9 5 Sudoeste 10 Sudoeste 0 -- -- 88
2019-10-19 04:00:00 17.9 9 Sudoeste 13 Sudoeste 0 -- -- 88
2019-10-19 03:00:00 17.8 7 Sur 14 Sudoeste 0 -- -- 90
2019-10-19 02:00:00 18.3 11 Sudoeste 17 Sudoeste 0 -- -- 87
2019-10-19 01:00:00 19 15 Sudoeste 19 Sudoeste 0 -- -- 85
2019-10-19 00:00:00 19.2 8 Sur 18 Sudoeste 0 -- -- 81
2019-10-18 23:00:00 20.2 8 Sudoeste 23 Sudoeste 0 -- -- 75
2019-10-18 22:00:00 20.8 13 Sudoeste 21 Sudoeste 0 -- -- 73
2019-10-18 21:00:00 22.1 7 Oeste 13 Sudoeste 0 -- -- 65
2019-10-18 20:00:00 23.1 6 Oeste 18 Sudoeste 0 -- -- 61
2019-10-18 19:00:00 24.2 13 Oeste 24 Sudoeste 0 -- -- 58
2019-10-18 18:00:00 25.2 13 Oeste 26 Oeste 0 -- -- 56
2019-10-18 17:00:00 26.4 14 Sudoeste 26 Sudoeste 0 -- -- 52
2019-10-18 16:00:00 26.1 9 Oeste 29 Sudoeste 0 -- -- 53
2019-10-18 15:00:00 24.8 12 Sudoeste 23 Sudoeste 0 -- -- 57
2019-10-18 14:00:00 24.6 12 Sudoeste 18 Sudoeste 0 -- -- 58
2019-10-18 13:00:00 22.2 9 Sudoeste 15 Sudoeste 0 -- -- 63
2019-10-18 12:00:00 20.3 5 Sur 10 Sur 0 -- -- 67
2019-10-18 11:00:00 18.3 2 Sudoeste 8 Noroeste 0 -- -- 65
2019-10-18 10:00:00 15.5 2 Nordeste 6 Norte 0 -- -- 74
2019-10-18 09:00:00 12 3 Norte 8 Nordeste 0 -- -- 77
2019-10-18 08:00:00 11.5 2 Norte 4 Norte 0 -- -- 70
2019-10-18 07:00:00 11.6 3 Norte 4 Norte 0 -- -- 69
2019-10-18 06:00:00 11.9 0 Calma 4 Norte 0 -- -- 64
2019-10-18 05:00:00 12.6 0 Calma 4 Norte 0 -- -- 67
2019-10-18 04:00:00 12.6 0 Calma 3 Sudeste 0 -- -- 65
2019-10-18 03:00:00 13.4 0 Calma 2 Sur 0 -- -- 66
2019-10-18 02:00:00 13.9 2 Sur 3 Sur 0 -- -- 66
2019-10-18 01:00:00 14.3 3 Sudoeste 4 Sudoeste 0 -- -- 57
2019-10-18 00:00:00 14.9 0 Calma 5 Este 0 -- -- 48
2019-10-17 23:00:00 15.7 0 Calma 5 Sur 0 -- -- 48
2019-10-17 22:00:00 16.7 3 Este 6 Este 0 -- -- 45
2019-10-17 21:00:00 18.8 0 Calma 5 Sudeste 0 -- -- 44
2019-10-17 20:00:00 21.9 2 Sur 9 Sudoeste 0 -- -- 40
2019-10-17 19:00:00 24.6 9 Sudoeste 20 Sudoeste 0 -- -- 34
2019-10-17 18:00:00 26 8 Sudoeste 20 Sur 0 -- -- 30
2019-10-17 17:00:00 25.7 8 Sudoeste 17 Sudoeste 0 -- -- 31
2019-10-17 16:00:00 24.7 7 Sudoeste 15 Sudoeste 0 -- -- 36
2019-10-17 15:00:00 23.8 6 Sudoeste 14 Sudoeste 0 -- -- 39
2019-10-17 14:00:00 21.6 5 Oeste 12 Sudoeste 0 -- -- 45
2019-10-17 13:00:00 20.7 4 Sur 16 Sudoeste 0 -- -- 50
2019-10-17 12:00:00 18.6 5 Oeste 17 Sur 0 -- -- 50
2019-10-17 11:00:00 16.1 3 Oeste 6 Sudoeste 0 -- -- 50
2019-10-17 10:00:00 11.8 4 Norte 6 Nordeste 0 -- -- 58
2019-10-17 09:00:00 7.1 0 Calma 8 Nordeste 0 -- -- 70
2019-10-17 08:00:00 6.6 2 Nordeste 5 Este 0 -- -- 66
2019-10-17 07:00:00 7.7 0 Calma 7 Norte 0 -- -- 62
2019-10-17 06:00:00 8.7 4 Norte 7 Norte 0 -- -- 60
2019-10-17 05:00:00 9.4 4 Norte 6 Norte 0 -- -- 57
2019-10-17 04:00:00 9.1 2 Norte 5 Norte 0 -- -- 57
2019-10-17 03:00:00 9.5 3 Norte 6 Norte 0 -- -- 54
2019-10-17 02:00:00 9.8 2 Norte 4 Nordeste 0 -- -- 52
2019-10-17 01:00:00 10.7 3 Nordeste 8 Sudoeste 0 -- -- 52
2019-10-17 00:00:00 11.8 2 Noroeste 3 Noroeste 0 -- -- 47
2019-10-16 23:00:00 12.8 0 Calma 6 Este 0 -- -- 47
2019-10-16 22:00:00 14.2 3 Este 8 Sudeste 0 -- -- 43
2019-10-16 21:00:00 16.1 0 Calma 5 Este 0 -- -- 38
2019-10-16 20:00:00 20 2 Sur 8 Sudoeste 0 -- -- 35
2019-10-16 19:00:00 23.2 6 Sudoeste 11 Sudoeste 0 -- -- 29
2019-10-16 18:00:00 24.6 6 Sur 13 Sudoeste 0 -- -- 25
2019-10-16 17:00:00 24.5 5 Oeste 13 Sudoeste 0 -- -- 28
2019-10-16 16:00:00 24.2 8 Sudoeste 18 Sudeste 0 -- -- 30
2019-10-16 15:00:00 22.5 6 Noroeste 15 Noroeste 0 -- -- 33
2019-10-16 14:00:00 21.4 5 Noroeste 15 Noroeste 0 -- -- 37
2019-10-16 13:00:00 20.1 4 Nordeste 14 Norte 0 -- -- 41
2019-10-16 12:00:00 17.2 8 Norte 17 Norte 0 -- -- 51
2019-10-16 11:00:00 14.8 7 Norte 15 Norte 0 -- -- 59
2019-10-16 10:00:00 10.6 3 Norte 14 Norte 0 -- -- 69
2019-10-16 09:00:00 5.9 0 Calma 5 Norte 0 -- -- 78
2019-10-16 08:00:00 5.9 3 Norte 6 Norte 0 -- -- 78
2019-10-16 07:00:00 7.3 2 Norte 8 Nordeste 0 -- -- 74
2019-10-16 06:00:00 7.8 3 Norte 9 Norte 0 -- -- 72
2019-10-16 05:00:00 6.6 3 Norte 5 Norte 0 -- -- 74
2019-10-16 04:00:00 7.4 2 Norte 5 Norte 0 -- -- 71
2019-10-16 03:00:00 8.1 2 Nordeste 6 Este 0 -- -- 71
2019-10-16 02:00:00 9.4 0 Calma 8 Norte 0 -- -- 67
2019-10-16 01:00:00 10.1 4 Norte 6 Norte 0 -- -- 63
2019-10-16 00:00:00 10.2 4 Norte 7 Norte 0 -- -- 63
2019-10-15 23:00:00 11.2 0 Calma 4 Este 0 -- -- 62
2019-10-15 22:00:00 12.6 3 Nordeste 5 Norte 0 -- -- 56
2019-10-15 21:00:00 14.5 3 Este 5 Este 0 -- -- 52
2019-10-15 20:00:00 17.7 2 Sudoeste 9 Sudoeste 0 -- -- 47
2019-10-15 19:00:00 20.1 6 Sur 14 Sudoeste 0 -- -- 41
2019-10-15 18:00:00 21.6 11 Sudoeste 16 Sudoeste 0 -- -- 38
2019-10-15 17:00:00 21.3 4 Sur 15 Norte 0 -- -- 37
2019-10-15 16:00:00 20.4 3 Este 12 Nordeste 0 -- -- 39
2019-10-15 15:00:00 19.5 6 Norte 14 Norte 0 -- -- 45
2019-10-15 14:00:00 18.5 5 Norte 20 Nordeste 0 -- -- 49
2019-10-15 13:00:00 17.3 8 Norte 20 Nordeste 0 -- -- 56
2019-10-15 12:00:00 15.8 14 Nordeste 22 Nordeste 0 -- -- 61
2019-10-15 11:00:00 14.4 9 Nordeste 14 Norte 0 -- -- 75
2019-10-15 10:00:00 10.6 3 Norte 6 Nordeste 0 -- -- 95
2019-10-15 09:00:00 6.8 2 Norte 4 Norte 0 -- -- 97
2019-10-15 08:00:00 6.7 2 Nordeste 4 Este 0 -- -- 95
2019-10-15 07:00:00 7.8 0 Calma 4 Este 0 -- -- 94
2019-10-15 06:00:00 9.1 3 Este 6 Sudeste 0 -- -- 92
2019-10-15 05:00:00 10.1 3 Norte 6 Este 0 -- -- 94
2019-10-15 04:00:00 10.4 3 Este 8 Noroeste 0.2 -- -- 93
2019-10-15 03:00:00 11.4 2 Nordeste 4 Norte 0 -- -- 93
2019-10-15 02:00:00 12.9 2 Norte 5 Norte 0 -- -- 91
2019-10-15 01:00:00 14.5 0 Calma 7 Sudoeste 0 -- -- 91
2019-10-15 00:00:00 15.3 7 Sudoeste 10 Sudoeste 0 -- -- 90
2019-10-14 23:00:00 15.8 3 Sudoeste 19 Noroeste 0 -- -- 89
2019-10-14 22:00:00 16.2 13 Noroeste 39 Sudoeste 0.8 -- -- 86
2019-10-14 21:00:00 18.5 24 Sudoeste 39 Sudoeste 0 -- -- 73
2019-10-14 20:00:00 19.2 23 Sudoeste 46 Sudoeste 0 -- -- 60
2019-10-14 19:00:00 20.6 33 Sudoeste 50 Sudoeste 0 -- -- 54
2019-10-14 18:00:00 22.5 35 Sudoeste 47 Sudoeste 0 -- -- 52
2019-10-14 17:00:00 22.6 31 Sudoeste 47 Sudoeste 0 -- -- 57
2019-10-14 16:00:00 23.3 29 Sudoeste 43 Sudoeste 0 -- -- 57
2019-10-14 15:00:00 21.5 24 Sudoeste 35 Sudoeste 0 -- -- 64
2019-10-14 14:00:00 20.5 25 Sudoeste 35 Sudoeste 0 -- -- 68
2019-10-14 13:00:00 21 28 Sudoeste 40 Sudoeste 0 -- -- 73
2019-10-14 12:00:00 19.6 25 Sudoeste 40 Sudoeste 0.2 -- -- 86
2019-10-14 11:00:00 18.8 28 Sudoeste 37 Sudoeste 0 -- -- 89
2019-10-14 10:00:00 16.8 15 Sudoeste 42 Sudoeste 0.8 -- -- 92
2019-10-14 09:00:00 19.6 24 Sudoeste 35 Sudoeste 0 -- -- 78
2019-10-14 08:00:00 19.4 24 Sudoeste 40 Sudoeste 0 -- -- 79
2019-10-14 07:00:00 19.2 16 Sur 35 Sudoeste 0 -- -- 85
2019-10-14 06:00:00 19.3 16 Sudoeste 40 Sudoeste 0 -- -- 78
2019-10-14 05:00:00 19.2 10 Sudoeste 15 Sudoeste 0 -- -- 74
2019-10-14 04:00:00 19.8 5 Sur 19 Sudoeste 0 -- -- 66
2019-10-14 03:00:00 21.6 15 Sudoeste 30 Sudoeste 0 -- -- 62
2019-10-14 02:00:00 21.3 13 Sudoeste 22 Sur 0 -- -- 53
2019-10-14 01:00:00 22.9 16 Sur 25 Sur 0 -- -- 51
2019-10-14 00:00:00 22.3 13 Sur 21 Sur 0 -- -- 51